sensor_id;sensor_type;location;lat;lon;timestamp;P1;durP1;ratioP1;P2;durP2;ratioP2
34573;SDS011;20809;49.594;8.734;2023-02-04T00:02:35;11.57;;;5.65;;
34573;SDS011;20809;49.594;8.734;2023-02-04T00:05:37;9.70;;;5.50;;
34573;SDS011;20809;49.594;8.734;2023-02-04T00:08:37;8.90;;;5.43;;
34573;SDS011;20809;49.594;8.734;2023-02-04T00:11:38;14.45;;;5.65;;
34573;SDS011;20809;49.594;8.734;2023-02-04T00:14:39;9.93;;;4.18;;
34573;SDS011;20809;49.594;8.734;2023-02-04T00:17:39;11.95;;;4.35;;
34573;SDS011;20809;49.594;8.734;2023-02-04T00:20:43;15.02;;;4.90;;
34573;SDS011;20809;49.594;8.734;2023-02-04T00:23:43;9.20;;;3.40;;
34573;SDS011;20809;49.594;8.734;2023-02-04T00:26:44;13.13;;;4.03;;
34573;SDS011;20809;49.594;8.734;2023-02-04T00:29:45;9.32;;;3.00;;
34573;SDS011;20809;49.594;8.734;2023-02-04T00:32:45;12.27;;;2.38;;
34573;SDS011;20809;49.594;8.734;2023-02-04T00:35:46;12.85;;;3.33;;
34573;SDS011;20809;49.594;8.734;2023-02-04T00:38:47;16.70;;;2.67;;
34573;SDS011;20809;49.594;8.734;2023-02-04T00:41:48;9.32;;;2.38;;
34573;SDS011;20809;49.594;8.734;2023-02-04T00:44:48;7.72;;;2.38;;
34573;SDS011;20809;49.594;8.734;2023-02-04T00:47:49;13.93;;;2.70;;
34573;SDS011;20809;49.594;8.734;2023-02-04T00:50:50;12.88;;;3.42;;
34573;SDS011;20809;49.594;8.734;2023-02-04T00:53:52;15.73;;;3.00;;
34573;SDS011;20809;49.594;8.734;2023-02-04T00:56:53;11.88;;;3.60;;
34573;SDS011;20809;49.594;8.734;2023-02-04T00:59:54;9.88;;;2.65;;
34573;SDS011;20809;49.594;8.734;2023-02-04T01:02:55;13.35;;;2.63;;
34573;SDS011;20809;49.594;8.734;2023-02-04T01:05:55;10.93;;;3.28;;
34573;SDS011;20809;49.594;8.734;2023-02-04T01:08:56;15.10;;;3.40;;
34573;SDS011;20809;49.594;8.734;2023-02-04T01:11:57;9.93;;;2.67;;
34573;SDS011;20809;49.594;8.734;2023-02-04T01:14:57;12.52;;;2.95;;
34573;SDS011;20809;49.594;8.734;2023-02-04T01:17:58;10.98;;;3.03;;
34573;SDS011;20809;49.594;8.734;2023-02-04T01:20:59;15.05;;;2.40;;
34573;SDS011;20809;49.594;8.734;2023-02-04T01:24:00;13.00;;;3.00;;
34573;SDS011;20809;49.594;8.734;2023-02-04T01:27:01;15.55;;;3.33;;
34573;SDS011;20809;49.594;8.734;2023-02-04T01:30:03;9.95;;;2.28;;
34573;SDS011;20809;49.594;8.734;2023-02-04T01:33:04;10.57;;;3.30;;
34573;SDS011;20809;49.594;8.734;2023-02-04T01:36:05;18.58;;;4.28;;
34573;SDS011;20809;49.594;8.734;2023-02-04T01:39:05;12.80;;;3.50;;
34573;SDS011;20809;49.594;8.734;2023-02-04T01:42:06;7.90;;;2.50;;
34573;SDS011;20809;49.594;8.734;2023-02-04T01:45:07;10.55;;;3.15;;
34573;SDS011;20809;49.594;8.734;2023-02-04T01:51:11;13.18;;;2.90;;
34573;SDS011;20809;49.594;8.734;2023-02-04T01:54:13;8.05;;;2.58;;
34573;SDS011;20809;49.594;8.734;2023-02-04T01:59:10;10.27;;;2.92;;
34573;SDS011;20809;49.594;8.734;2023-02-04T02:02:35;10.88;;;2.63;;
34573;SDS011;20809;49.594;8.734;2023-02-04T02:08:47;9.30;;;3.10;;
34573;SDS011;20809;49.594;8.734;2023-02-04T02:11:48;10.40;;;2.22;;
34573;SDS011;20809;49.594;8.734;2023-02-04T02:14:49;13.00;;;3.25;;
34573;SDS011;20809;49.594;8.734;2023-02-04T02:17:50;6.47;;;2.55;;
34573;SDS011;20809;49.594;8.734;2023-02-04T02:20:52;13.10;;;2.78;;
34573;SDS011;20809;49.594;8.734;2023-02-04T02:26:58;16.17;;;2.58;;
34573;SDS011;20809;49.594;8.734;2023-02-04T02:30:02;10.85;;;2.13;;
34573;SDS011;20809;49.594;8.734;2023-02-04T02:33:05;12.63;;;2.45;;
34573;SDS011;20809;49.594;8.734;2023-02-04T02:36:08;8.52;;;2.63;;
34573;SDS011;20809;49.594;8.734;2023-02-04T02:39:09;9.90;;;2.20;;
34573;SDS011;20809;49.594;8.734;2023-02-04T02:42:11;12.52;;;2.53;;
34573;SDS011;20809;49.594;8.734;2023-02-04T02:45:19;11.48;;;2.80;;
34573;SDS011;20809;49.594;8.734;2023-02-04T02:48:30;9.57;;;2.58;;
34573;SDS011;20809;49.594;8.734;2023-02-04T02:55:39;12.82;;;2.40;;
34573;SDS011;20809;49.594;8.734;2023-02-04T02:58:40;10.35;;;2.25;;
34573;SDS011;20809;49.594;8.734;2023-02-04T03:01:42;9.43;;;2.72;;
34573;SDS011;20809;49.594;8.734;2023-02-04T03:04:45;13.73;;;4.05;;
34573;SDS011;20809;49.594;8.734;2023-02-04T03:07:49;8.93;;;2.63;;
34573;SDS011;20809;49.594;8.734;2023-02-04T03:10:50;13.05;;;4.05;;
34573;SDS011;20809;49.594;8.734;2023-02-04T03:13:51;13.93;;;3.03;;
34573;SDS011;20809;49.594;8.734;2023-02-04T03:16:53;11.07;;;3.63;;
34573;SDS011;20809;49.594;8.734;2023-02-04T03:19:54;11.85;;;3.08;;
34573;SDS011;20809;49.594;8.734;2023-02-04T03:22:55;17.45;;;3.88;;
34573;SDS011;20809;49.594;8.734;2023-02-04T03:25:57;15.10;;;3.40;;
34573;SDS011;20809;49.594;8.734;2023-02-04T03:28:59;14.45;;;3.20;;
34573;SDS011;20809;49.594;8.734;2023-02-04T03:32:01;14.40;;;4.43;;
34573;SDS011;20809;49.594;8.734;2023-02-04T03:35:08;14.80;;;3.88;;
34573;SDS011;20809;49.594;8.734;2023-02-04T03:38:09;13.48;;;2.72;;
34573;SDS011;20809;49.594;8.734;2023-02-04T03:41:10;24.58;;;4.15;;
34573;SDS011;20809;49.594;8.734;2023-02-04T03:44:11;10.57;;;2.92;;
34573;SDS011;20809;49.594;8.734;2023-02-04T03:47:12;14.38;;;3.28;;
34573;SDS011;20809;49.594;8.734;2023-02-04T03:50:14;11.18;;;2.83;;
34573;SDS011;20809;49.594;8.734;2023-02-04T03:53:15;12.30;;;3.67;;
34573;SDS011;20809;49.594;8.734;2023-02-04T03:56:16;13.10;;;3.03;;
34573;SDS011;20809;49.594;8.734;2023-02-04T03:59:17;17.33;;;4.43;;
34573;SDS011;20809;49.594;8.734;2023-02-04T04:02:19;10.88;;;3.78;;
34573;SDS011;20809;49.594;8.734;2023-02-04T04:05:20;16.40;;;3.17;;
34573;SDS011;20809;49.594;8.734;2023-02-04T04:11:22;7.30;;;3.93;;
34573;SDS011;20809;49.594;8.734;2023-02-04T04:14:23;15.85;;;3.63;;
34573;SDS011;20809;49.594;8.734;2023-02-04T04:17:24;8.85;;;3.38;;
34573;SDS011;20809;49.594;8.734;2023-02-04T04:20:26;18.10;;;3.85;;
34573;SDS011;20809;49.594;8.734;2023-02-04T04:23:28;16.30;;;3.55;;
34573;SDS011;20809;49.594;8.734;2023-02-04T04:26:28;16.45;;;4.22;;
34573;SDS011;20809;49.594;8.734;2023-02-04T04:29:29;11.70;;;3.38;;
34573;SDS011;20809;49.594;8.734;2023-02-04T04:32:30;15.00;;;3.67;;
34573;SDS011;20809;49.594;8.734;2023-02-04T04:35:31;14.77;;;3.17;;
34573;SDS011;20809;49.594;8.734;2023-02-04T04:38:33;12.45;;;3.88;;
34573;SDS011;20809;49.594;8.734;2023-02-04T04:41:34;15.05;;;3.90;;
34573;SDS011;20809;49.594;8.734;2023-02-04T04:44:36;12.95;;;3.08;;
34573;SDS011;20809;49.594;8.734;2023-02-04T04:47:38;9.07;;;3.35;;
34573;SDS011;20809;49.594;8.734;2023-02-04T04:50:40;15.10;;;3.08;;
34573;SDS011;20809;49.594;8.734;2023-02-04T04:56:41;13.43;;;2.73;;
34573;SDS011;20809;49.594;8.734;2023-02-04T04:59:42;11.65;;;3.40;;
34573;SDS011;20809;49.594;8.734;2023-02-04T05:02:44;8.18;;;3.38;;
34573;SDS011;20809;49.594;8.734;2023-02-04T05:05:45;13.23;;;4.07;;
34573;SDS011;20809;49.594;8.734;2023-02-04T05:08:46;12.02;;;2.92;;
34573;SDS011;20809;49.594;8.734;2023-02-04T05:11:46;17.17;;;3.15;;
34573;SDS011;20809;49.594;8.734;2023-02-04T05:14:47;16.25;;;3.78;;
34573;SDS011;20809;49.594;8.734;2023-02-04T05:17:48;11.50;;;3.42;;
34573;SDS011;20809;49.594;8.734;2023-02-04T05:20:49;11.27;;;2.63;;
34573;SDS011;20809;49.594;8.734;2023-02-04T05:23:50;12.57;;;2.38;;
34573;SDS011;20809;49.594;8.734;2023-02-04T05:26:51;15.75;;;2.70;;
34573;SDS011;20809;49.594;8.734;2023-02-04T05:29:51;10.68;;;2.20;;
34573;SDS011;20809;49.594;8.734;2023-02-04T05:32:54;6.25;;;1.83;;
34573;SDS011;20809;49.594;8.734;2023-02-04T05:35:55;16.33;;;4.70;;
34573;SDS011;20809;49.594;8.734;2023-02-04T05:38:56;8.93;;;1.88;;
34573;SDS011;20809;49.594;8.734;2023-02-04T05:41:57;11.75;;;2.40;;
34573;SDS011;20809;49.594;8.734;2023-02-04T05:44:58;11.05;;;2.72;;
34573;SDS011;20809;49.594;8.734;2023-02-04T05:47:59;13.70;;;2.38;;
34573;SDS011;20809;49.594;8.734;2023-02-04T05:50:59;18.10;;;5.10;;
34573;SDS011;20809;49.594;8.734;2023-02-04T05:54:00;19.88;;;3.92;;
34573;SDS011;20809;49.594;8.734;2023-02-04T05:57:01;16.08;;;4.60;;
34573;SDS011;20809;49.594;8.734;2023-02-04T06:00:02;11.88;;;2.70;;
34573;SDS011;20809;49.594;8.734;2023-02-04T06:06:08;21.30;;;4.90;;
34573;SDS011;20809;49.594;8.734;2023-02-04T06:09:11;15.63;;;3.50;;
34573;SDS011;20809;49.594;8.734;2023-02-04T06:12:12;17.25;;;4.35;;
34573;SDS011;20809;49.594;8.734;2023-02-04T06:15:13;16.80;;;3.50;;
34573;SDS011;20809;49.594;8.734;2023-02-04T06:18:16;16.92;;;3.05;;
34573;SDS011;20809;49.594;8.734;2023-02-04T06:21:19;16.00;;;2.90;;
34573;SDS011;20809;49.594;8.734;2023-02-04T06:24:20;12.43;;;3.92;;
34573;SDS011;20809;49.594;8.734;2023-02-04T06:27:22;22.00;;;3.63;;
34573;SDS011;20809;49.594;8.734;2023-02-04T06:30:28;14.77;;;3.97;;
34573;SDS011;20809;49.594;8.734;2023-02-04T06:33:31;19.52;;;4.25;;
34573;SDS011;20809;49.594;8.734;2023-02-04T06:36:32;7.85;;;2.45;;
34573;SDS011;20809;49.594;8.734;2023-02-04T06:42:38;12.07;;;3.22;;
34573;SDS011;20809;49.594;8.734;2023-02-04T06:48:42;15.23;;;2.78;;
34573;SDS011;20809;49.594;8.734;2023-02-04T06:51:49;15.95;;;4.13;;
34573;SDS011;20809;49.594;8.734;2023-02-04T06:54:54;12.20;;;2.90;;
34573;SDS011;20809;49.594;8.734;2023-02-04T06:57:56;12.50;;;3.10;;
34573;SDS011;20809;49.594;8.734;2023-02-04T07:00:58;17.38;;;5.53;;
34573;SDS011;20809;49.594;8.734;2023-02-04T07:04:05;15.80;;;5.03;;
34573;SDS011;20809;49.594;8.734;2023-02-04T07:07:08;16.10;;;4.32;;
34573;SDS011;20809;49.594;8.734;2023-02-04T07:10:17;17.90;;;6.10;;
34573;SDS011;20809;49.594;8.734;2023-02-04T07:13:21;14.45;;;3.33;;
34573;SDS011;20809;49.594;8.734;2023-02-04T07:16:23;10.25;;;3.47;;
34573;SDS011;20809;49.594;8.734;2023-02-04T07:19:27;22.55;;;4.57;;
34573;SDS011;20809;49.594;8.734;2023-02-04T07:22:29;15.20;;;3.47;;
34573;SDS011;20809;49.594;8.734;2023-02-04T07:25:30;24.70;;;5.75;;
34573;SDS011;20809;49.594;8.734;2023-02-04T07:31:32;20.13;;;2.95;;
34573;SDS011;20809;49.594;8.734;2023-02-04T07:34:34;10.48;;;2.75;;
34573;SDS011;20809;49.594;8.734;2023-02-04T07:37:42;15.13;;;3.80;;
34573;SDS011;20809;49.594;8.734;2023-02-04T07:40:46;21.05;;;4.53;;
34573;SDS011;20809;49.594;8.734;2023-02-04T07:43:48;23.02;;;7.15;;
34573;SDS011;20809;49.594;8.734;2023-02-04T07:46:51;35.00;;;12.40;;
34573;SDS011;20809;49.594;8.734;2023-02-04T07:49:54;10.38;;;4.90;;
34573;SDS011;20809;49.594;8.734;2023-02-04T07:52:57;22.45;;;5.30;;
34573;SDS011;20809;49.594;8.734;2023-02-04T07:56:02;13.13;;;4.20;;
34573;SDS011;20809;49.594;8.734;2023-02-04T07:59:07;15.57;;;4.05;;
34573;SDS011;20809;49.594;8.734;2023-02-04T08:02:09;18.83;;;4.40;;
34573;SDS011;20809;49.594;8.734;2023-02-04T08:05:15;15.13;;;4.20;;
34573;SDS011;20809;49.594;8.734;2023-02-04T08:08:19;11.32;;;3.95;;
34573;SDS011;20809;49.594;8.734;2023-02-04T08:11:21;14.45;;;3.65;;
34573;SDS011;20809;49.594;8.734;2023-02-04T08:14:27;16.80;;;4.10;;
34573;SDS011;20809;49.594;8.734;2023-02-04T08:17:29;10.25;;;2.88;;
34573;SDS011;20809;49.594;8.734;2023-02-04T08:20:35;10.93;;;4.03;;
34573;SDS011;20809;49.594;8.734;2023-02-04T08:23:38;16.95;;;5.60;;
34573;SDS011;20809;49.594;8.734;2023-02-04T08:26:43;15.90;;;5.40;;
34573;SDS011;20809;49.594;8.734;2023-02-04T08:29:44;9.15;;;3.50;;
34573;SDS011;20809;49.594;8.734;2023-02-04T08:32:46;15.10;;;3.80;;
34573;SDS011;20809;49.594;8.734;2023-02-04T08:35:47;9.65;;;3.80;;
34573;SDS011;20809;49.594;8.734;2023-02-04T08:38:50;13.90;;;4.40;;
34573;SDS011;20809;49.594;8.734;2023-02-04T08:41:52;16.05;;;4.05;;
34573;SDS011;20809;49.594;8.734;2023-02-04T08:47:54;14.55;;;4.70;;
34573;SDS011;20809;49.594;8.734;2023-02-04T08:50:56;13.75;;;3.70;;
34573;SDS011;20809;49.594;8.734;2023-02-04T08:53:58;15.20;;;4.15;;
34573;SDS011;20809;49.594;8.734;2023-02-04T09:00:01;14.65;;;4.22;;
34573;SDS011;20809;49.594;8.734;2023-02-04T09:03:04;13.25;;;3.97;;
34573;SDS011;20809;49.594;8.734;2023-02-04T09:06:07;21.35;;;3.42;;
34573;SDS011;20809;49.594;8.734;2023-02-04T09:09:14;17.08;;;3.17;;
34573;SDS011;20809;49.594;8.734;2023-02-04T09:12:16;15.25;;;3.58;;
34573;SDS011;20809;49.594;8.734;2023-02-04T09:15:18;15.45;;;4.47;;
34573;SDS011;20809;49.594;8.734;2023-02-04T09:18:20;14.85;;;3.97;;
34573;SDS011;20809;49.594;8.734;2023-02-04T09:21:22;32.55;;;6.25;;
34573;SDS011;20809;49.594;8.734;2023-02-04T09:24:25;16.05;;;4.35;;
34573;SDS011;20809;49.594;8.734;2023-02-04T09:27:28;20.85;;;4.72;;
34573;SDS011;20809;49.594;8.734;2023-02-04T09:30:31;18.83;;;3.80;;
34573;SDS011;20809;49.594;8.734;2023-02-04T09:33:33;14.18;;;3.70;;
34573;SDS011;20809;49.594;8.734;2023-02-04T09:36:39;15.07;;;3.53;;
34573;SDS011;20809;49.594;8.734;2023-02-04T09:39:41;17.63;;;3.83;;
34573;SDS011;20809;49.594;8.734;2023-02-04T09:42:46;13.80;;;3.92;;
34573;SDS011;20809;49.594;8.734;2023-02-04T09:45:52;22.10;;;4.22;;
34573;SDS011;20809;49.594;8.734;2023-02-04T09:49:05;13.30;;;2.72;;
34573;SDS011;20809;49.594;8.734;2023-02-04T09:52:11;15.32;;;2.92;;
34573;SDS011;20809;49.594;8.734;2023-02-04T09:55:16;19.50;;;4.00;;
34573;SDS011;20809;49.594;8.734;2023-02-04T09:58:20;10.23;;;3.17;;
34573;SDS011;20809;49.594;8.734;2023-02-04T10:01:23;13.52;;;2.63;;
34573;SDS011;20809;49.594;8.734;2023-02-04T10:04:27;21.48;;;4.88;;
34573;SDS011;20809;49.594;8.734;2023-02-04T10:07:29;11.38;;;3.08;;
34573;SDS011;20809;49.594;8.734;2023-02-04T10:10:34;15.35;;;3.83;;
34573;SDS011;20809;49.594;8.734;2023-02-04T10:13:41;14.65;;;2.83;;
34573;SDS011;20809;49.594;8.734;2023-02-04T10:16:56;12.55;;;2.63;;
34573;SDS011;20809;49.594;8.734;2023-02-04T10:20:01;10.23;;;2.53;;
34573;SDS011;20809;49.594;8.734;2023-02-04T10:23:04;14.98;;;3.50;;
34573;SDS011;20809;49.594;8.734;2023-02-04T10:26:12;13.82;;;2.63;;
34573;SDS011;20809;49.594;8.734;2023-02-04T10:29:21;13.90;;;2.60;;
34573;SDS011;20809;49.594;8.734;2023-02-04T10:32:26;11.50;;;2.47;;
34573;SDS011;20809;49.594;8.734;2023-02-04T10:35:31;11.63;;;2.70;;
34573;SDS011;20809;49.594;8.734;2023-02-04T10:41:45;13.13;;;3.50;;
34573;SDS011;20809;49.594;8.734;2023-02-04T10:44:50;11.95;;;2.10;;
34573;SDS011;20809;49.594;8.734;2023-02-04T10:47:54;10.35;;;1.90;;
34573;SDS011;20809;49.594;8.734;2023-02-04T10:50:58;13.05;;;1.75;;
34573;SDS011;20809;49.594;8.734;2023-02-04T10:54:00;13.80;;;2.08;;
34573;SDS011;20809;49.594;8.734;2023-02-04T10:57:27;9.30;;;2.35;;
34573;SDS011;20809;49.594;8.734;2023-02-04T11:00:30;12.02;;;2.22;;
34573;SDS011;20809;49.594;8.734;2023-02-04T11:03:33;14.38;;;4.35;;
34573;SDS011;20809;49.594;8.734;2023-02-04T11:06:38;13.32;;;2.50;;
34573;SDS011;20809;49.594;8.734;2023-02-04T11:09:41;9.50;;;1.92;;
34573;SDS011;20809;49.594;8.734;2023-02-04T11:12:46;11.25;;;3.42;;
34573;SDS011;20809;49.594;8.734;2023-02-04T11:16:45;17.83;;;2.53;;
34573;SDS011;20809;49.594;8.734;2023-02-04T11:19:29;10.23;;;2.40;;
34573;SDS011;20809;49.594;8.734;2023-02-04T11:22:44;11.32;;;1.95;;
34573;SDS011;20809;49.594;8.734;2023-02-04T11:29:28;10.50;;;2.63;;
34573;SDS011;20809;49.594;8.734;2023-02-04T11:32:39;8.73;;;1.70;;
34573;SDS011;20809;49.594;8.734;2023-02-04T11:35:55;8.50;;;1.95;;
34573;SDS011;20809;49.594;8.734;2023-02-04T11:39:13;11.60;;;3.35;;
34573;SDS011;20809;49.594;8.734;2023-02-04T11:42:28;12.50;;;2.00;;
34573;SDS011;20809;49.594;8.734;2023-02-04T11:45:45;6.28;;;1.65;;
34573;SDS011;20809;49.594;8.734;2023-02-04T11:48:52;12.82;;;2.03;;
34573;SDS011;20809;49.594;8.734;2023-02-04T11:52:04;15.55;;;2.30;;
34573;SDS011;20809;49.594;8.734;2023-02-04T11:55:16;11.18;;;2.25;;
34573;SDS011;20809;49.594;8.734;2023-02-04T11:58:19;9.90;;;2.55;;
34573;SDS011;20809;49.594;8.734;2023-02-04T12:01:31;6.90;;;2.25;;
34573;SDS011;20809;49.594;8.734;2023-02-04T12:04:36;7.25;;;1.98;;
34573;SDS011;20809;49.594;8.734;2023-02-04T12:07:52;10.75;;;3.38;;
34573;SDS011;20809;49.594;8.734;2023-02-04T12:14:09;15.45;;;3.38;;
34573;SDS011;20809;49.594;8.734;2023-02-04T12:17:19;22.10;;;2.47;;
34573;SDS011;20809;49.594;8.734;2023-02-04T12:20:22;18.50;;;4.95;;
34573;SDS011;20809;49.594;8.734;2023-02-04T12:23:25;9.35;;;2.22;;
34573;SDS011;20809;49.594;8.734;2023-02-04T12:26:31;10.00;;;3.05;;
34573;SDS011;20809;49.594;8.734;2023-02-04T12:29:35;7.35;;;2.42;;
34573;SDS011;20809;49.594;8.734;2023-02-04T12:32:39;12.55;;;1.95;;
34573;SDS011;20809;49.594;8.734;2023-02-04T12:35:48;8.10;;;2.35;;
34573;SDS011;20809;49.594;8.734;2023-02-04T12:38:53;7.40;;;1.65;;
34573;SDS011;20809;49.594;8.734;2023-02-04T12:41:55;6.80;;;1.92;;
34573;SDS011;20809;49.594;8.734;2023-02-04T12:44:57;11.93;;;1.83;;
34573;SDS011;20809;49.594;8.734;2023-02-04T12:48:03;6.45;;;1.70;;
34573;SDS011;20809;49.594;8.734;2023-02-04T12:51:06;10.63;;;2.10;;
34573;SDS011;20809;49.594;8.734;2023-02-04T12:54:08;8.23;;;1.73;;
34573;SDS011;20809;49.594;8.734;2023-02-04T12:57:17;8.15;;;2.55;;
34573;SDS011;20809;49.594;8.734;2023-02-04T13:00:20;7.47;;;2.22;;
34573;SDS011;20809;49.594;8.734;2023-02-04T13:03:23;8.65;;;2.28;;
34573;SDS011;20809;49.594;8.734;2023-02-04T13:06:30;15.65;;;3.55;;
34573;SDS011;20809;49.594;8.734;2023-02-04T13:09:32;6.95;;;1.80;;
34573;SDS011;20809;49.594;8.734;2023-02-04T13:12:36;10.90;;;1.80;;
34573;SDS011;20809;49.594;8.734;2023-02-04T13:15:39;9.88;;;2.15;;
34573;SDS011;20809;49.594;8.734;2023-02-04T13:18:45;6.63;;;1.75;;
34573;SDS011;20809;49.594;8.734;2023-02-04T13:21:47;6.35;;;2.00;;
34573;SDS011;20809;49.594;8.734;2023-02-04T13:24:48;8.30;;;1.45;;
34573;SDS011;20809;49.594;8.734;2023-02-04T13:27:49;8.60;;;2.03;;
34573;SDS011;20809;49.594;8.734;2023-02-04T13:30:53;5.38;;;1.20;;
34573;SDS011;20809;49.594;8.734;2023-02-04T13:33:57;6.85;;;2.10;;
34573;SDS011;20809;49.594;8.734;2023-02-04T13:37:02;6.00;;;1.00;;
34573;SDS011;20809;49.594;8.734;2023-02-04T13:40:07;7.25;;;1.88;;
34573;SDS011;20809;49.594;8.734;2023-02-04T13:43:11;8.20;;;1.60;;
34573;SDS011;20809;49.594;8.734;2023-02-04T13:46:12;8.15;;;1.73;;
34573;SDS011;20809;49.594;8.734;2023-02-04T13:49:13;6.88;;;1.88;;
34573;SDS011;20809;49.594;8.734;2023-02-04T13:52:14;8.00;;;1.83;;
34573;SDS011;20809;49.594;8.734;2023-02-04T13:55:17;9.80;;;3.25;;
34573;SDS011;20809;49.594;8.734;2023-02-04T13:58:18;13.18;;;2.58;;
34573;SDS011;20809;49.594;8.734;2023-02-04T14:07:23;8.15;;;2.00;;
34573;SDS011;20809;49.594;8.734;2023-02-04T14:10:24;9.60;;;2.63;;
34573;SDS011;20809;49.594;8.734;2023-02-04T14:13:26;9.05;;;2.42;;
34573;SDS011;20809;49.594;8.734;2023-02-04T14:16:27;11.63;;;3.75;;
34573;SDS011;20809;49.594;8.734;2023-02-04T14:19:28;8.65;;;3.38;;
34573;SDS011;20809;49.594;8.734;2023-02-04T14:22:28;13.55;;;2.17;;
34573;SDS011;20809;49.594;8.734;2023-02-04T14:25:30;8.57;;;1.40;;
34573;SDS011;20809;49.594;8.734;2023-02-04T14:31:32;10.90;;;3.40;;
34573;SDS011;20809;49.594;8.734;2023-02-04T14:34:34;8.32;;;2.47;;
34573;SDS011;20809;49.594;8.734;2023-02-04T14:40:39;9.60;;;2.55;;
34573;SDS011;20809;49.594;8.734;2023-02-04T14:43:41;11.82;;;2.70;;
34573;SDS011;20809;49.594;8.734;2023-02-04T14:46:47;9.50;;;1.75;;
34573;SDS011;20809;49.594;8.734;2023-02-04T14:49:48;11.40;;;1.88;;
34573;SDS011;20809;49.594;8.734;2023-02-04T14:52:50;11.73;;;2.33;;
34573;SDS011;20809;49.594;8.734;2023-02-04T14:55:52;15.38;;;2.13;;
34573;SDS011;20809;49.594;8.734;2023-02-04T14:58:54;9.23;;;2.03;;
34573;SDS011;20809;49.594;8.734;2023-02-04T15:01:55;7.55;;;2.03;;
34573;SDS011;20809;49.594;8.734;2023-02-04T15:04:57;9.30;;;2.25;;
34573;SDS011;20809;49.594;8.734;2023-02-04T15:08:00;5.65;;;1.67;;
34573;SDS011;20809;49.594;8.734;2023-02-04T15:11:04;6.15;;;1.60;;
34573;SDS011;20809;49.594;8.734;2023-02-04T15:14:06;8.07;;;2.03;;
34573;SDS011;20809;49.594;8.734;2023-02-04T15:17:09;7.90;;;2.25;;
34573;SDS011;20809;49.594;8.734;2023-02-04T15:20:12;7.80;;;1.55;;
34573;SDS011;20809;49.594;8.734;2023-02-04T15:26:17;12.45;;;3.78;;
34573;SDS011;20809;49.594;8.734;2023-02-04T15:29:26;7.03;;;1.75;;
34573;SDS011;20809;49.594;8.734;2023-02-04T15:32:32;7.30;;;1.48;;
34573;SDS011;20809;49.594;8.734;2023-02-04T15:35:33;10.75;;;2.38;;
34573;SDS011;20809;49.594;8.734;2023-02-04T15:38:34;10.35;;;2.42;;
34573;SDS011;20809;49.594;8.734;2023-02-04T15:41:35;7.40;;;2.58;;
34573;SDS011;20809;49.594;8.734;2023-02-04T15:44:40;10.35;;;2.42;;
34573;SDS011;20809;49.594;8.734;2023-02-04T15:47:41;9.55;;;2.47;;
34573;SDS011;20809;49.594;8.734;2023-02-04T15:50:42;7.57;;;2.60;;
34573;SDS011;20809;49.594;8.734;2023-02-04T15:53:44;10.10;;;2.83;;
34573;SDS011;20809;49.594;8.734;2023-02-04T15:56:45;8.25;;;2.90;;
34573;SDS011;20809;49.594;8.734;2023-02-04T15:59:46;13.13;;;4.20;;
34573;SDS011;20809;49.594;8.734;2023-02-04T16:02:47;12.23;;;3.90;;
34573;SDS011;20809;49.594;8.734;2023-02-04T16:08:50;8.52;;;4.32;;
34573;SDS011;20809;49.594;8.734;2023-02-04T16:11:53;14.40;;;5.15;;
34573;SDS011;20809;49.594;8.734;2023-02-04T16:14:55;7.95;;;4.13;;
34573;SDS011;20809;49.594;8.734;2023-02-04T16:17:56;11.07;;;4.90;;
34573;SDS011;20809;49.594;8.734;2023-02-04T16:20:59;9.30;;;3.75;;
34573;SDS011;20809;49.594;8.734;2023-02-04T16:24:00;7.28;;;2.75;;
34573;SDS011;20809;49.594;8.734;2023-02-04T16:27:02;8.27;;;3.20;;
34573;SDS011;20809;49.594;8.734;2023-02-04T16:30:04;9.48;;;3.50;;
34573;SDS011;20809;49.594;8.734;2023-02-04T16:33:14;15.45;;;7.10;;
34573;SDS011;20809;49.594;8.734;2023-02-04T16:36:15;9.85;;;4.10;;
34573;SDS011;20809;49.594;8.734;2023-02-04T16:39:17;9.30;;;2.72;;
34573;SDS011;20809;49.594;8.734;2023-02-04T16:42:19;11.68;;;4.57;;
34573;SDS011;20809;49.594;8.734;2023-02-04T16:45:20;13.23;;;5.15;;
34573;SDS011;20809;49.594;8.734;2023-02-04T16:48:21;10.63;;;3.70;;
34573;SDS011;20809;49.594;8.734;2023-02-04T16:51:22;10.48;;;4.40;;
34573;SDS011;20809;49.594;8.734;2023-02-04T16:54:23;11.65;;;4.50;;
34573;SDS011;20809;49.594;8.734;2023-02-04T16:57:25;7.78;;;2.60;;
34573;SDS011;20809;49.594;8.734;2023-02-04T17:00:27;7.13;;;2.35;;
34573;SDS011;20809;49.594;8.734;2023-02-04T17:03:28;9.50;;;3.33;;
34573;SDS011;20809;49.594;8.734;2023-02-04T17:06:29;9.52;;;2.85;;
34573;SDS011;20809;49.594;8.734;2023-02-04T17:09:34;16.75;;;6.30;;
34573;SDS011;20809;49.594;8.734;2023-02-04T17:12:36;20.25;;;8.38;;
34573;SDS011;20809;49.594;8.734;2023-02-04T17:15:37;32.00;;;15.48;;
34573;SDS011;20809;49.594;8.734;2023-02-04T17:18:37;24.67;;;7.88;;
34573;SDS011;20809;49.594;8.734;2023-02-04T17:21:38;13.90;;;5.90;;
34573;SDS011;20809;49.594;8.734;2023-02-04T17:24:39;35.53;;;8.55;;
34573;SDS011;20809;49.594;8.734;2023-02-04T17:27:42;16.85;;;7.60;;
34573;SDS011;20809;49.594;8.734;2023-02-04T17:30:43;21.17;;;6.72;;
34573;SDS011;20809;49.594;8.734;2023-02-04T17:33:45;13.93;;;4.93;;
34573;SDS011;20809;49.594;8.734;2023-02-04T17:36:46;8.77;;;3.50;;
34573;SDS011;20809;49.594;8.734;2023-02-04T17:39:47;11.20;;;3.42;;
34573;SDS011;20809;49.594;8.734;2023-02-04T17:42:47;9.13;;;3.30;;
34573;SDS011;20809;49.594;8.734;2023-02-04T17:45:51;9.35;;;3.45;;
34573;SDS011;20809;49.594;8.734;2023-02-04T17:48:55;11.35;;;4.15;;
34573;SDS011;20809;49.594;8.734;2023-02-04T17:51:57;11.65;;;3.95;;
34573;SDS011;20809;49.594;8.734;2023-02-04T17:54:59;7.20;;;3.08;;
34573;SDS011;20809;49.594;8.734;2023-02-04T17:58:06;15.75;;;6.13;;
34573;SDS011;20809;49.594;8.734;2023-02-04T18:01:12;17.13;;;5.30;;
34573;SDS011;20809;49.594;8.734;2023-02-04T18:04:22;13.13;;;5.95;;
34573;SDS011;20809;49.594;8.734;2023-02-04T18:07:24;20.58;;;6.70;;
34573;SDS011;20809;49.594;8.734;2023-02-04T18:13:29;118.88;;;47.60;;
34573;SDS011;20809;49.594;8.734;2023-02-04T18:16:32;46.97;;;20.13;;
34573;SDS011;20809;49.594;8.734;2023-02-04T18:19:33;79.32;;;32.83;;
34573;SDS011;20809;49.594;8.734;2023-02-04T18:22:36;39.92;;;17.58;;
34573;SDS011;20809;49.594;8.734;2023-02-04T18:25:37;35.70;;;15.50;;
34573;SDS011;20809;49.594;8.734;2023-02-04T18:28:39;27.15;;;11.45;;
34573;SDS011;20809;49.594;8.734;2023-02-04T18:32:11;26.05;;;10.93;;
34573;SDS011;20809;49.594;8.734;2023-02-04T18:38:36;23.63;;;10.80;;
34573;SDS011;20809;49.594;8.734;2023-02-04T18:41:40;22.67;;;12.20;;
34573;SDS011;20809;49.594;8.734;2023-02-04T18:44:47;23.60;;;11.40;;
34573;SDS011;20809;49.594;8.734;2023-02-04T18:47:48;29.85;;;13.10;;
34573;SDS011;20809;49.594;8.734;2023-02-04T18:50:54;37.90;;;18.33;;
34573;SDS011;20809;49.594;8.734;2023-02-04T18:53:57;26.10;;;11.82;;
34573;SDS011;20809;49.594;8.734;2023-02-04T18:57:24;13.77;;;4.72;;
34573;SDS011;20809;49.594;8.734;2023-02-04T19:00:38;8.27;;;3.35;;
34573;SDS011;20809;49.594;8.734;2023-02-04T19:03:45;16.15;;;4.57;;
34573;SDS011;20809;49.594;8.734;2023-02-04T19:06:48;13.35;;;5.72;;
34573;SDS011;20809;49.594;8.734;2023-02-04T19:09:54;12.90;;;6.78;;
34573;SDS011;20809;49.594;8.734;2023-02-04T19:13:43;9.55;;;4.53;;
34573;SDS011;20809;49.594;8.734;2023-02-04T19:16:35;14.80;;;4.10;;
34573;SDS011;20809;49.594;8.734;2023-02-04T19:19:59;8.43;;;3.10;;
34573;SDS011;20809;49.594;8.734;2023-02-04T19:22:58;17.63;;;4.93;;
34573;SDS011;20809;49.594;8.734;2023-02-04T19:26:01;15.30;;;7.78;;
34573;SDS011;20809;49.594;8.734;2023-02-04T19:32:26;16.55;;;7.45;;